Andrus Island, California
Current Conditions -  °F | °C
As of 1:58 PM on Saturday 25 Oct 2014 (Local Time) from KSUU Reporting Station
Broken Clouds Broken Clouds  
Wind Chill: 71°   Ceiling: 6000
Heat Index: 71°   Visibility: 10mi
Dew Point: 56°   Wind: 22mph
Humidity: 61%   Direction: 230°SW
Pressure: 30"   Gusts: 28mph
Location:  38.1457°N, 121.624°W
Report Text: KSUU 252058Z AUTO 23019G24KT 10SM BKN060 21/14 A3000 RMK AO2 PK WND 23028/34 SLP165 T02140136 58004 $
Loading
Personal Weather Stations






























Interactive Weather Map
Tropical Storm Tracking
New forecast layout! Learn more

10-Day Weather Forecast

Advertisements
Track Severe Weather on mobile